Time;durP1;ratioP1;P1;durP2;ratioP2;P2;SDS_P1;SDS_P2;PMS_P1;PMS_P2;Temp;Humidity;BMP_temperature;BMP_pressure;BME280_temperature;BME280_humidity;BME280_pressure;Samples;Min_cycle;Max_cycle;Signal;HPM_P1;HPM_P2
2022/03/05 00:01:35;;;;;;;17.25;12.02;;;-0.40;99.90;;;;;;5044177;28;20095;-55
2022/03/05 00:04:01;;;;;;;18.50;12.13;;;-0.40;99.90;;;;;;5040775;28;20052;-55
2022/03/05 00:06:26;;;;;;;18.90;12.13;;;-0.40;99.90;;;;;;5041481;28;20047;-55
2022/03/05 00:08:55;;;;;;;15.68;11.48;;;-0.50;99.90;;;;;;5039053;28;20053;-55
2022/03/05 00:11:21;;;;;;;18.55;12.75;;;-0.50;99.90;;;;;;5043433;28;20080;-55
2022/03/05 00:13:46;;;;;;;21.75;13.23;;;-0.50;99.90;;;;;;5039450;28;20136;-54
2022/03/05 00:16:13;;;;;;;19.13;13.05;;;-0.50;99.90;;;;;;5036706;28;20079;-55
2022/03/05 00:18:39;;;;;;;18.05;12.45;;;-0.50;99.90;;;;;;5033261;28;20602;-55
2022/03/05 00:21:05;;;;;;;19.20;12.40;;;-0.50;99.90;;;;;;5047026;28;20045;-54
2022/03/05 00:23:33;;;;;;;18.63;11.50;;;-0.60;99.90;;;;;;5040207;28;20045;-55
2022/03/05 00:25:59;;;;;;;17.63;11.52;;;-0.60;99.90;;;;;;5041884;28;20075;-55
2022/03/05 00:28:25;;;;;;;21.83;13.07;;;-0.60;99.90;;;;;;5039510;28;20439;-55
2022/03/05 00:30:51;;;;;;;17.48;12.05;;;-0.60;99.90;;;;;;5040880;28;20051;-55
2022/03/05 00:33:19;;;;;;;17.23;12.13;;;-0.70;99.90;;;;;;5048179;28;20037;-55
2022/03/05 00:35:45;;;;;;;19.00;11.85;;;-0.70;99.90;;;;;;5054003;28;20089;-54
2022/03/05 00:38:11;;;;;;;18.48;13.05;;;-0.70;99.90;;;;;;5045812;28;20087;-55
2022/03/05 00:40:38;;;;;;;18.95;12.15;;;-0.80;99.90;;;;;;5040665;28;20131;-54
2022/03/05 00:43:04;;;;;;;17.75;11.88;;;-0.80;99.90;;;;;;5033528;28;20145;-55
2022/03/05 00:45:30;;;;;;;18.48;13.07;;;-0.80;99.90;;;;;;5042906;28;20048;-57
2022/03/05 00:47:56;;;;;;;19.35;13.38;;;-0.90;99.90;;;;;;5056969;28;20052;-54
2022/03/05 00:54:16;;;;;;;19.30;12.35;;;-0.90;99.90;;;;;;4980557;23;20055;-54
2022/03/05 00:56:42;;;;;;;19.67;13.27;;;-0.90;99.90;;;;;;4908458;29;20059;-54
2022/03/05 00:59:08;;;;;;;20.05;13.38;;;-1.00;99.90;;;;;;4906730;29;20048;-54
2022/03/05 01:01:34;;;;;;;19.15;12.95;;;-1.00;99.90;;;;;;4899917;29;20414;-54
2022/03/05 01:03:59;;;;;;;20.20;13.23;;;-1.00;99.90;;;;;;4905984;29;20056;-54
2022/03/05 01:06:27;;;;;;;17.00;11.85;;;-1.00;99.90;;;;;;4876932;29;20605;-54
2022/03/05 01:08:53;;;;;;;18.23;12.27;;;-1.00;99.90;;;;;;4876379;29;20153;-55
2022/03/05 01:11:19;;;;;;;19.70;12.75;;;-1.10;99.90;;;;;;4886679;29;20159;-54
2022/03/05 01:13:45;;;;;;;19.85;12.90;;;-1.10;99.90;;;;;;4900600;29;20055;-54
2022/03/05 01:16:12;;;;;;;19.00;12.85;;;-1.10;99.90;;;;;;4892423;29;20507;-54
2022/03/05 01:18:38;;;;;;;20.23;12.77;;;-1.10;99.90;;;;;;4888801;29;20074;-51
2022/03/05 01:21:04;;;;;;;21.20;11.95;;;-1.10;99.90;;;;;;4895043;29;20534;-54
2022/03/05 01:23:29;;;;;;;19.27;13.02;;;-1.20;99.90;;;;;;4885404;29;20075;-55
2022/03/05 01:25:55;;;;;;;20.70;13.93;;;-1.20;99.90;;;;;;4901364;29;20461;-54
2022/03/05 01:28:21;;;;;;;20.38;12.68;;;-1.20;99.90;;;;;;4870266;29;20052;-54
2022/03/05 01:30:47;;;;;;;21.30;13.18;;;-1.20;99.90;;;;;;4890670;29;20392;-51
2022/03/05 01:33:15;;;;;;;18.52;12.93;;;-1.20;99.90;;;;;;4896665;29;20059;-54
2022/03/05 01:35:48;;;;;;;22.05;12.63;;;-1.20;99.90;;;;;;4877679;29;20156;-53
2022/03/05 01:38:16;;;;;;;22.17;13.90;;;-1.20;99.90;;;;;;4896728;29;20060;-54
2022/03/05 01:40:42;;;;;;;21.58;13.35;;;-1.20;99.90;;;;;;4884685;29;20060;-55
2022/03/05 01:43:08;;;;;;;19.73;12.95;;;-1.30;99.90;;;;;;4884647;29;20052;-51
2022/03/05 01:45:34;;;;;;;20.02;13.60;;;-1.30;99.90;;;;;;4882245;29;20155;-53
2022/03/05 01:48:01;;;;;;;19.27;12.93;;;-1.30;99.90;;;;;;4890667;29;20127;-53
2022/03/05 01:50:27;;;;;;;20.20;13.20;;;-1.30;99.90;;;;;;4872143;29;20052;-54
2022/03/05 01:52:53;;;;;;;21.98;13.35;;;-1.30;99.90;;;;;;4900978;29;20055;-54
2022/03/05 01:55:19;;;;;;;19.65;13.02;;;-1.30;99.90;;;;;;4901654;29;20056;-53
2022/03/05 01:57:45;;;;;;;21.50;13.30;;;-1.30;99.90;;;;;;4900116;29;20391;-53
2022/03/05 02:00:13;;;;;;;19.73;13.00;;;-1.30;99.90;;;;;;4884553;29;20107;-54
2022/03/05 02:02:43;;;;;;;22.52;13.88;;;-1.30;99.90;;;;;;4903140;29;20090;-54
2022/03/05 02:05:10;;;;;;;20.75;13.23;;;-1.30;99.90;;;;;;4899797;29;20044;-51
2022/03/05 02:07:36;;;;;;;19.02;12.95;;;-1.30;99.90;;;;;;4902720;29;20462;-53
2022/03/05 02:10:08;;;;;;;20.60;12.68;;;-1.30;99.90;;;;;;4902051;29;20071;-54
2022/03/05 02:12:36;;;;;;;22.73;13.77;;;-1.30;99.90;;;;;;4872812;29;20059;-53
2022/03/05 02:15:04;;;;;;;21.30;13.93;;;-1.30;99.90;;;;;;4901499;29;20055;-54
2022/03/05 02:17:30;;;;;;;19.50;13.50;;;-1.40;99.90;;;;;;4876048;29;20061;-53
2022/03/05 02:19:57;;;;;;;21.95;12.88;;;-1.40;99.90;;;;;;4893953;29;20115;-54
2022/03/05 02:22:24;;;;;;;20.73;13.65;;;-1.40;99.90;;;;;;4887077;29;20071;-53
2022/03/05 02:24:55;;;;;;;18.75;12.07;;;-1.40;99.90;;;;;;4895338;29;20048;-51
2022/03/05 02:27:25;;;;;;;19.83;12.95;;;-1.40;99.90;;;;;;4877448;29;20068;-52
2022/03/05 02:29:51;;;;;;;22.63;13.27;;;-1.50;99.90;;;;;;4895787;29;20056;-53
2022/03/05 02:32:17;;;;;;;22.17;12.98;;;-1.50;99.90;;;;;;4891059;29;20056;-51
2022/03/05 02:34:43;;;;;;;19.85;12.52;;;-1.50;99.90;;;;;;4897175;29;20044;-53
2022/03/05 02:37:15;;;;;;;20.33;12.57;;;-1.60;99.90;;;;;;4881763;29;20104;-50
2022/03/05 02:39:45;;;;;;;18.35;12.43;;;-1.60;99.90;;;;;;4885450;29;20059;-54
2022/03/05 02:42:15;;;;;;;20.67;12.95;;;-1.60;99.90;;;;;;4874157;29;20528;-53
2022/03/05 02:44:42;;;;;;;19.70;13.00;;;-1.60;99.90;;;;;;4889075;29;20535;-53
2022/03/05 02:47:08;;;;;;;20.75;12.98;;;-1.60;99.90;;;;;;4880316;29;20067;-48
2022/03/05 02:49:33;;;;;;;20.85;12.40;;;-1.60;99.90;;;;;;4844389;29;20064;-54
2022/03/05 02:51:59;;;;;;;18.90;12.20;;;-1.60;99.90;;;;;;4888700;29;20044;-53
2022/03/05 02:54:25;;;;;;;18.70;12.55;;;-1.70;99.90;;;;;;4902142;29;20053;-54
2022/03/05 02:56:51;;;;;;;18.52;12.27;;;-1.60;99.90;;;;;;4896581;29;20052;-52
2022/03/05 02:59:17;;;;;;;22.33;12.73;;;-1.70;99.90;;;;;;4905043;29;20519;-54
2022/03/05 03:01:43;;;;;;;21.48;12.73;;;-1.70;99.90;;;;;;4905029;29;20060;-54
2022/03/05 03:04:08;;;;;;;20.77;12.32;;;-1.70;99.90;;;;;;4887028;29;20048;-53
2022/03/05 03:06:34;;;;;;;18.63;11.88;;;-1.70;99.90;;;;;;4886357;29;20550;-53
2022/03/05 03:09:00;;;;;;;19.25;12.30;;;-1.70;99.90;;;;;;4902993;29;20056;-54
2022/03/05 03:11:26;;;;;;;20.27;12.30;;;-1.80;99.90;;;;;;4887041;29;20044;-53
2022/03/05 03:13:52;;;;;;;20.30;12.73;;;-1.80;99.90;;;;;;4892920;29;20044;-53
2022/03/05 03:16:17;;;;;;;23.58;12.60;;;-1.80;99.90;;;;;;4883342;29;20055;-53
2022/03/05 03:18:43;;;;;;;20.75;11.95;;;-1.80;99.90;;;;;;4884667;29;20450;-54
2022/03/05 03:21:12;;;;;;;18.00;11.20;;;-1.90;99.90;;;;;;4903633;29;20056;-51
2022/03/05 03:23:37;;;;;;;17.15;11.73;;;-1.90;99.90;;;;;;4901335;29;20108;-53
2022/03/05 03:26:06;;;;;;;18.13;12.00;;;-1.90;99.90;;;;;;4900826;29;20455;-54
2022/03/05 03:28:32;;;;;;;19.20;11.68;;;-1.90;99.90;;;;;;4881508;29;20116;-53
2022/03/05 03:30:58;;;;;;;18.45;10.70;;;-1.90;99.90;;;;;;4908598;29;20447;-53
2022/03/05 03:33:25;;;;;;;18.50;11.23;;;-1.90;99.90;;;;;;4880608;29;20039;-55
2022/03/05 03:35:51;;;;;;;17.98;10.75;;;-1.80;99.90;;;;;;4887722;29;20051;-53
2022/03/05 03:38:16;;;;;;;18.35;10.90;;;-1.80;99.90;;;;;;4876092;29;20060;-53
2022/03/05 03:40:42;;;;;;;18.17;10.38;;;-1.80;99.90;;;;;;4882713;29;20071;-53
2022/03/05 03:43:08;;;;;;;16.58;10.85;;;-1.80;99.90;;;;;;4900955;29;20048;-52
2022/03/05 03:45:34;;;;;;;15.15;10.25;;;-1.80;99.90;;;;;;4881216;29;20416;-53
2022/03/05 03:47:59;;;;;;;15.82;11.23;;;-1.80;99.90;;;;;;4904026;29;20052;-52
2022/03/05 03:50:25;;;;;;;17.05;10.77;;;-1.80;99.90;;;;;;4899101;29;20131;-53
2022/03/05 03:52:51;;;;;;;17.50;9.85;;;-1.80;99.90;;;;;;4877722;29;20385;-53
2022/03/05 03:55:21;;;;;;;15.77;10.40;;;-1.90;99.90;;;;;;4900929;29;20507;-54
2022/03/05 03:57:47;;;;;;;16.30;9.82;;;-1.90;99.90;;;;;;4900231;29;20467;-52
2022/03/05 04:00:15;;;;;;;17.10;10.07;;;-1.90;99.90;;;;;;4886773;29;20060;-53
2022/03/05 04:02:42;;;;;;;15.90;10.02;;;-1.90;99.90;;;;;;4883749;29;20052;-52
2022/03/05 04:05:08;;;;;;;15.25;9.80;;;-2.00;99.90;;;;;;4891400;29;20056;-47
2022/03/05 04:10:20;;;;;;;18.52;10.80;;;-2.00;99.90;;;;;;4891843;29;20053;-53
2022/03/05 04:12:45;;;;;;;18.00;10.93;;;-2.00;99.90;;;;;;4895552;29;20505;-50
2022/03/05 04:15:11;;;;;;;18.25;10.20;;;-2.10;99.90;;;;;;4882596;29;20132;-54
2022/03/05 04:17:38;;;;;;;18.42;11.07;;;-2.10;99.90;;;;;;4892795;29;20052;-53
2022/03/05 04:20:07;;;;;;;17.15;10.70;;;-2.10;99.90;;;;;;4892379;29;20056;-54
2022/03/05 04:22:33;;;;;;;18.17;11.32;;;-2.10;99.90;;;;;;4880197;29;20562;-54
2022/03/05 04:25:01;;;;;;;18.27;9.95;;;-2.10;99.90;;;;;;4896536;29;20140;-53
2022/03/05 04:27:27;;;;;;;17.48;9.88;;;-2.20;99.90;;;;;;4899577;29;20058;-54
2022/03/05 04:29:52;;;;;;;16.65;10.00;;;-2.20;99.90;;;;;;4901036;29;20052;-53
2022/03/05 04:32:18;;;;;;;14.63;9.15;;;-2.20;99.90;;;;;;4896110;29;20048;-53
2022/03/05 04:34:44;;;;;;;17.92;10.30;;;-2.20;99.90;;;;;;4901882;29;20048;-53
2022/03/05 04:37:10;;;;;;;19.73;9.73;;;-2.20;99.90;;;;;;4894061;29;20060;-54
2022/03/05 04:39:36;;;;;;;18.33;10.15;;;-2.20;99.90;;;;;;4890415;29;20059;-54
2022/03/05 04:42:02;;;;;;;17.60;10.50;;;-2.20;99.90;;;;;;4899094;29;20052;-53
2022/03/05 04:44:28;;;;;;;18.58;11.27;;;-2.20;99.90;;;;;;4890644;29;20135;-54
2022/03/05 04:46:54;;;;;;;15.85;10.13;;;-2.30;99.90;;;;;;4892430;29;20118;-54
2022/03/05 04:49:20;;;;;;;16.55;10.10;;;-2.20;99.90;;;;;;4897362;29;20060;-50
2022/03/05 04:51:47;;;;;;;16.75;8.88;;;-2.20;99.90;;;;;;4881731;29;20052;-52
2022/03/05 04:54:13;;;;;;;19.70;10.13;;;-2.20;99.90;;;;;;4881022;29;20066;-54
2022/03/05 04:56:38;;;;;;;18.30;9.68;;;-2.30;99.90;;;;;;4899666;29;20457;-53
2022/03/05 04:59:07;;;;;;;14.93;9.25;;;-2.30;99.90;;;;;;4897913;29;20534;-54
2022/03/05 05:01:33;;;;;;;17.08;9.90;;;-2.30;99.90;;;;;;4882203;29;20124;-54
2022/03/05 05:03:59;;;;;;;18.88;9.10;;;-2.30;99.90;;;;;;4895813;29;20044;-53
2022/03/05 05:06:25;;;;;;;17.42;9.80;;;-2.30;99.90;;;;;;4894820;29;20198;-54
2022/03/05 05:08:51;;;;;;;16.02;9.48;;;-2.30;99.90;;;;;;4895187;29;20147;-53
2022/03/05 05:11:16;;;;;;;15.00;8.75;;;-2.30;99.90;;;;;;4901916;29;20052;-52
2022/03/05 05:13:42;;;;;;;15.93;9.00;;;-2.30;99.90;;;;;;4903427;29;20060;-54
2022/03/05 05:16:08;;;;;;;17.23;10.57;;;-2.30;99.90;;;;;;4874982;29;20115;-52
2022/03/05 05:18:34;;;;;;;16.85;9.65;;;-2.40;99.90;;;;;;4875881;29;20064;-53
2022/03/05 05:21:00;;;;;;;16.17;9.77;;;-2.40;99.90;;;;;;4874516;29;20056;-54
2022/03/05 05:23:26;;;;;;;19.98;10.43;;;-2.40;99.90;;;;;;4895513;29;20060;-53
2022/03/05 05:25:52;;;;;;;16.23;9.15;;;-2.40;99.90;;;;;;4877086;29;20055;-54
2022/03/05 05:28:18;;;;;;;15.80;9.02;;;-2.40;99.90;;;;;;4881559;29;20056;-53
2022/03/05 05:30:43;;;;;;;15.32;9.43;;;-2.40;99.90;;;;;;4902177;29;20051;-53
2022/03/05 05:33:09;;;;;;;15.65;9.73;;;-2.40;99.90;;;;;;4883442;29;20147;-49
2022/03/05 05:35:35;;;;;;;21.40;10.27;;;-2.40;99.90;;;;;;4885794;29;20064;-53
2022/03/05 05:38:01;;;;;;;16.63;9.45;;;-2.40;99.90;;;;;;4882180;29;20408;-54
2022/03/05 05:40:26;;;;;;;20.83;11.05;;;-2.40;99.90;;;;;;4903665;29;20054;-53
2022/03/05 05:42:53;;;;;;;18.60;10.43;;;-2.50;99.90;;;;;;4903600;29;20055;-54
2022/03/05 05:45:18;;;;;;;16.42;9.73;;;-2.40;99.90;;;;;;4885803;29;20056;-52
2022/03/05 05:47:44;;;;;;;17.95;10.45;;;-2.50;99.90;;;;;;4881746;29;20066;-54
2022/03/05 05:50:10;;;;;;;21.70;12.10;;;-2.40;99.90;;;;;;4900579;29;20060;-50
2022/03/05 05:52:37;;;;;;;15.88;9.60;;;-2.40;99.90;;;;;;4883358;29;20585;-54
2022/03/05 05:55:04;;;;;;;16.70;9.85;;;-2.40;99.90;;;;;;4897602;29;20118;-54
2022/03/05 05:57:29;;;;;;;15.48;10.07;;;-2.50;99.90;;;;;;4879851;29;20203;-53
2022/03/05 05:59:55;;;;;;;19.65;11.07;;;-2.40;99.90;;;;;;4898087;29;20070;-53
2022/03/05 06:02:22;;;;;;;17.83;9.85;;;-2.40;99.90;;;;;;4899445;29;20088;-51
2022/03/05 06:04:48;;;;;;;18.05;10.25;;;-2.50;99.90;;;;;;4890727;29;20161;-51
2022/03/05 06:07:13;;;;;;;21.40;11.95;;;-2.50;99.90;;;;;;4903868;29;20052;-53
2022/03/05 06:09:39;;;;;;;20.00;11.55;;;-2.50;99.90;;;;;;4883479;29;20467;-47
2022/03/05 06:12:05;;;;;;;17.63;10.52;;;-2.50;99.90;;;;;;4888646;29;20051;-51
2022/03/05 06:14:31;;;;;;;17.63;10.77;;;-2.50;99.90;;;;;;4900220;29;20379;-53
2022/03/05 06:16:56;;;;;;;20.10;10.15;;;-2.50;99.90;;;;;;4897474;29;20056;-54
2022/03/05 06:19:22;;;;;;;19.35;11.32;;;-2.40;99.90;;;;;;4900449;29;20422;-53
2022/03/05 06:21:48;;;;;;;18.65;10.77;;;-2.40;99.90;;;;;;4899181;29;20070;-52
2022/03/05 06:24:14;;;;;;;18.63;9.77;;;-2.40;99.90;;;;;;4902995;29;20048;-52
2022/03/05 06:26:39;;;;;;;18.30;10.55;;;-2.40;99.90;;;;;;4892814;29;20637;-51
2022/03/05 06:29:05;;;;;;;17.55;9.88;;;-2.40;99.90;;;;;;4894821;29;20056;-53
2022/03/05 06:31:31;;;;;;;17.77;10.95;;;-2.30;99.90;;;;;;4883954;29;20064;-52
2022/03/05 06:33:57;;;;;;;20.35;11.52;;;-2.30;99.90;;;;;;4899112;29;20104;-53
2022/03/05 06:36:22;;;;;;;19.77;11.93;;;-2.20;99.90;;;;;;4885347;29;20547;-54
2022/03/05 06:38:48;;;;;;;21.10;11.65;;;-2.10;99.90;;;;;;4901607;29;20439;-53
2022/03/05 06:41:14;;;;;;;20.75;10.90;;;-1.80;99.90;;;;;;4885672;29;20495;-54
2022/03/05 06:43:40;;;;;;;19.50;11.30;;;-1.50;99.90;;;;;;4870335;29;20062;-52
2022/03/05 06:46:06;;;;;;;18.27;10.77;;;-1.40;99.90;;;;;;4888521;29;20052;-54
2022/03/05 06:48:32;;;;;;;19.00;11.27;;;-1.30;99.90;;;;;;4887840;29;20100;-54
2022/03/05 06:50:58;;;;;;;19.13;11.30;;;-1.10;99.90;;;;;;4904937;29;20044;-55
2022/03/05 06:53:24;;;;;;;17.17;10.27;;;-0.90;99.90;;;;;;4902962;29;20138;-54
2022/03/05 06:55:50;;;;;;;16.05;9.77;;;-0.70;99.90;;;;;;4895449;29;20585;-50
2022/03/05 06:58:17;;;;;;;15.70;10.23;;;-0.50;99.90;;;;;;4904971;29;20052;-54
2022/03/05 07:00:43;;;;;;;17.63;10.05;;;-0.30;99.90;;;;;;4880652;29;20061;-53
2022/03/05 07:03:09;;;;;;;16.60;9.68;;;-0.10;99.90;;;;;;4898424;29;20059;-51
2022/03/05 07:05:35;;;;;;;14.07;8.68;;;0.10;99.90;;;;;;4876941;29;20060;-54
2022/03/05 07:08:04;;;;;;;14.95;10.00;;;0.20;99.90;;;;;;4863923;29;20044;-54
2022/03/05 07:10:30;;;;;;;16.27;10.10;;;0.30;99.90;;;;;;4882389;29;20566;-54
2022/03/05 07:12:55;;;;;;;14.40;10.20;;;0.40;99.90;;;;;;4895825;29;20100;-54
2022/03/05 07:15:22;;;;;;;14.95;9.00;;;0.50;99.90;;;;;;4885058;29;20672;-53
2022/03/05 07:17:52;;;;;;;12.23;8.40;;;0.60;99.90;;;;;;4895734;29;20065;-53
2022/03/05 07:20:18;;;;;;;17.25;9.30;;;0.80;99.90;;;;;;4879386;29;20060;-54
2022/03/05 07:22:44;;;;;;;15.25;9.52;;;0.80;99.90;;;;;;4882456;29;20067;-52
2022/03/05 07:25:15;;;;;;;15.15;9.32;;;0.80;99.90;;;;;;4881834;29;20586;-51
2022/03/05 07:27:42;;;;;;;13.57;10.07;;;0.70;99.90;;;;;;4883404;29;20056;-53
2022/03/05 07:30:09;;;;;;;14.75;8.98;;;0.60;99.90;;;;;;4903504;29;20060;-47
2022/03/05 07:32:36;;;;;;;14.40;9.23;;;0.50;99.90;;;;;;4894437;29;20104;-54
2022/03/05 07:35:04;;;;;;;12.68;8.88;;;0.40;99.90;;;;;;4895718;29;20424;-52
2022/03/05 07:37:30;;;;;;;14.55;9.23;;;0.40;99.90;;;;;;4883225;29;20068;-53
2022/03/05 07:39:56;;;;;;;13.68;9.15;;;0.40;99.90;;;;;;4883603;29;20056;-52
2022/03/05 07:42:22;;;;;;;14.27;8.65;;;0.60;99.90;;;;;;4875679;29;20061;-52
2022/03/05 07:44:48;;;;;;;15.57;10.55;;;0.70;99.90;;;;;;4881074;29;20052;-50
2022/03/05 07:47:13;;;;;;;13.95;9.07;;;0.80;99.90;;;;;;4881878;29;20131;-54
2022/03/05 07:49:39;;;;;;;13.45;9.40;;;0.90;99.90;;;;;;4885221;29;20052;-51
2022/03/05 07:52:05;;;;;;;13.88;8.13;;;1.00;99.90;;;;;;4901021;29;20060;-55
2022/03/05 07:54:35;;;;;;;13.63;8.60;;;1.10;99.90;;;;;;4906582;29;20429;-53
2022/03/05 07:57:01;;;;;;;12.90;9.60;;;1.20;99.90;;;;;;4883434;29;20052;-54
2022/03/05 07:59:26;;;;;;;18.80;9.18;;;1.30;99.90;;;;;;4900029;29;20095;-55
2022/03/05 08:01:52;;;;;;;14.65;9.77;;;1.30;99.90;;;;;;4884927;29;20728;-54
2022/03/05 08:04:18;;;;;;;15.68;10.13;;;1.40;99.90;;;;;;4903519;29;20048;-55
2022/03/05 08:06:43;;;;;;;14.93;10.23;;;1.50;99.90;;;;;;4901682;29;20199;-55
2022/03/05 08:09:09;;;;;;;15.32;9.93;;;1.60;99.90;;;;;;4870976;29;20047;-52
2022/03/05 08:11:35;;;;;;;12.75;9.15;;;1.70;99.90;;;;;;4901675;29;20080;-54
2022/03/05 08:14:01;;;;;;;16.10;9.63;;;1.70;99.90;;;;;;4887329;29;20075;-50
2022/03/05 08:16:27;;;;;;;16.90;10.35;;;1.70;99.90;;;;;;4886477;29;20116;-55
2022/03/05 08:18:53;;;;;;;15.15;9.80;;;1.80;99.90;;;;;;4887588;29;20092;-55
2022/03/05 08:21:18;;;;;;;16.17;11.25;;;1.90;99.90;;;;;;4869709;29;20068;-55
2022/03/05 08:23:44;;;;;;;16.85;10.13;;;2.00;99.90;;;;;;4905843;29;20052;-56
2022/03/05 08:26:13;;;;;;;14.95;10.68;;;2.00;99.90;;;;;;4885829;29;20415;-52
2022/03/05 08:28:43;;;;;;;14.85;10.65;;;2.10;99.90;;;;;;4886703;29;20047;-55
2022/03/05 08:31:09;;;;;;;16.05;10.90;;;2.10;99.90;;;;;;4867851;29;20444;-55
2022/03/05 08:33:34;;;;;;;17.30;10.73;;;2.20;99.90;;;;;;4888361;29;20535;-54
2022/03/05 08:36:00;;;;;;;17.00;11.57;;;2.20;99.90;;;;;;4897170;29;20052;-55
2022/03/05 08:38:31;;;;;;;15.90;10.05;;;2.30;99.90;;;;;;4895036;29;20052;-55
2022/03/05 08:40:58;;;;;;;17.25;11.20;;;2.40;99.90;;;;;;4883764;29;20060;-56
2022/03/05 08:43:25;;;;;;;19.88;11.45;;;2.50;99.90;;;;;;4903092;29;20052;-55
2022/03/05 08:45:51;;;;;;;18.25;10.93;;;2.50;99.90;;;;;;4879528;29;20063;-54
2022/03/05 08:48:17;;;;;;;17.67;10.70;;;2.50;99.90;;;;;;4895155;29;20053;-55
2022/03/05 08:50:42;;;;;;;14.77;10.32;;;2.50;99.90;;;;;;4878069;29;20063;-56
2022/03/05 08:53:08;;;;;;;18.23;12.55;;;2.60;99.90;;;;;;4900430;29;20059;-53
2022/03/05 08:55:34;;;;;;;17.70;11.50;;;2.60;99.90;;;;;;4892888;29;20056;-56
2022/03/05 08:57:59;;;;;;;17.80;12.20;;;2.60;99.90;;;;;;4892106;29;20839;-56
2022/03/05 09:00:27;;;;;;;16.77;11.60;;;2.60;99.90;;;;;;4884350;29;20575;-55
2022/03/05 09:02:53;;;;;;;17.02;11.95;;;2.70;99.90;;;;;;4880433;29;20056;-54
2022/03/05 09:05:18;;;;;;;20.48;12.95;;;2.70;99.90;;;;;;4899120;29;20054;-55
2022/03/05 09:07:44;;;;;;;20.15;12.95;;;2.80;99.90;;;;;;4893398;29;20100;-57
2022/03/05 09:10:11;;;;;;;17.52;11.73;;;2.80;99.90;;;;;;4872947;29;20056;-55
2022/03/05 09:12:37;;;;;;;18.30;12.15;;;2.80;99.90;;;;;;4887641;29;20922;-56
2022/03/05 09:15:05;;;;;;;18.55;12.65;;;2.90;99.90;;;;;;4885166;29;20063;-56
2022/03/05 09:17:31;;;;;;;20.95;13.20;;;3.00;99.90;;;;;;4887325;29;20059;-56
2022/03/05 09:20:00;;;;;;;20.65;13.30;;;3.00;99.90;;;;;;4894825;29;20054;-56
2022/03/05 09:22:26;;;;;;;21.92;13.82;;;3.10;99.90;;;;;;4875803;29;20059;-56
2022/03/05 09:24:52;;;;;;;25.35;15.23;;;3.20;99.90;;;;;;4890992;29;20060;-57
2022/03/05 09:27:17;;;;;;;24.23;14.80;;;3.30;99.90;;;;;;4897105;29;20056;-55
2022/03/05 09:29:43;;;;;;;22.17;13.60;;;3.40;99.90;;;;;;4898172;29;20578;-56
2022/03/05 09:32:10;;;;;;;21.50;14.68;;;3.50;99.90;;;;;;4881396;29;20047;-56
2022/03/05 09:34:36;;;;;;;19.80;13.63;;;3.60;99.90;;;;;;4862568;29;20428;-55
2022/03/05 09:37:02;;;;;;;20.73;13.65;;;3.60;99.90;;;;;;4866530;29;20091;-57
2022/03/05 09:39:28;;;;;;;22.85;13.55;;;3.70;99.90;;;;;;4887947;29;20523;-56
2022/03/05 09:41:54;;;;;;;24.92;14.25;;;3.70;99.90;;;;;;4881519;29;20056;-58
2022/03/05 09:44:20;;;;;;;23.08;14.98;;;3.70;99.90;;;;;;4876654;29;20159;-53
2022/03/05 09:46:47;;;;;;;22.83;13.85;;;3.70;99.90;;;;;;4890352;29;20052;-55
2022/03/05 09:49:14;;;;;;;21.73;13.63;;;3.70;99.90;;;;;;4879228;29;20488;-58
2022/03/05 09:51:39;;;;;;;26.20;15.43;;;3.70;99.90;;;;;;4895863;29;20542;-54
2022/03/05 09:54:05;;;;;;;20.60;13.20;;;3.70;99.90;;;;;;4874206;29;20071;-57
2022/03/05 09:56:31;;;;;;;23.40;14.05;;;3.90;99.90;;;;;;4897775;29;20055;-57
2022/03/05 09:58:57;;;;;;;24.50;13.88;;;3.90;99.90;;;;;;4896319;29;20413;-57
2022/03/05 10:01:23;;;;;;;21.98;14.32;;;3.90;99.90;;;;;;4895844;29;20045;-57
2022/03/05 10:03:50;;;;;;;24.02;15.30;;;3.90;99.90;;;;;;4896937;29;20057;-57
2022/03/05 10:06:22;;;;;;;25.45;15.32;;;4.00;99.90;;;;;;4896487;29;20388;-55
2022/03/05 10:08:51;;;;;;;25.20;13.85;;;4.10;99.90;;;;;;4895522;29;20075;-54
2022/03/05 10:11:19;;;;;;;21.80;14.77;;;4.20;99.90;;;;;;4890463;29;20060;-57
2022/03/05 10:13:45;;;;;;;25.83;17.92;;;4.20;99.90;;;;;;4901027;29;20733;-57
2022/03/05 10:16:30;;;;;;;27.17;16.73;;;4.20;99.90;;;;;;4897842;29;20099;-57
2022/03/05 10:18:57;;;;;;;25.00;16.33;;;4.40;99.90;;;;;;4885093;29;20060;-57
2022/03/05 10:21:29;;;;;;;21.98;15.05;;;4.40;99.90;;;;;;4895915;29;20056;-56
2022/03/05 10:24:07;;;;;;;24.45;14.93;;;4.50;99.90;;;;;;4890428;29;20066;-53
2022/03/05 10:26:53;;;;;;;27.55;16.50;;;4.50;99.90;;;;;;4894714;29;20127;-57
2022/03/05 10:29:36;;;;;;;27.30;16.27;;;4.60;99.90;;;;;;4891501;29;20048;-56
2022/03/05 10:32:08;;;;;;;25.13;16.55;;;4.60;99.90;;;;;;4877773;29;20066;-55
2022/03/05 10:34:50;;;;;;;24.95;15.15;;;4.70;99.90;;;;;;4895755;29;20079;-55
2022/03/05 10:37:20;;;;;;;24.70;16.65;;;4.80;99.90;;;;;;4894755;29;20056;-54
2022/03/05 10:39:47;;;;;;;24.15;14.35;;;4.80;99.90;;;;;;4892995;29;20415;-54
2022/03/05 10:42:20;;;;;;;22.42;14.63;;;4.80;99.90;;;;;;4895209;29;20059;-57
2022/03/05 10:45:11;;;;;;;25.50;15.05;;;4.80;99.90;;;;;;4895562;29;20408;-55
2022/03/05 10:47:42;;;;;;;31.65;18.02;;;4.90;99.90;;;;;;4881418;29;20095;-58
2022/03/05 10:50:30;;;;;;;23.42;15.63;;;5.00;99.90;;;;;;4893040;29;20044;-57
2022/03/05 10:53:02;;;;;;;22.63;14.52;;;5.10;99.90;;;;;;4873352;29;20056;-57
2022/03/05 10:55:38;;;;;;;21.17;13.18;;;5.10;99.90;;;;;;4894253;29;20104;-52
2022/03/05 10:58:17;;;;;;;23.52;15.50;;;5.10;99.90;;;;;;4880074;29;20057;-52
2022/03/05 11:00:50;;;;;;;22.63;14.18;;;5.10;99.90;;;;;;4876527;29;20060;-57
2022/03/05 11:03:17;;;;;;;23.20;15.40;;;5.10;99.90;;;;;;4895564;29;20052;-57
2022/03/05 11:05:43;;;;;;;26.55;15.98;;;5.00;99.90;;;;;;4895418;29;21124;-57
2022/03/05 11:08:09;;;;;;;22.60;15.45;;;5.10;99.90;;;;;;4894486;29;20815;-57
2022/03/05 11:10:36;;;;;;;24.70;16.25;;;5.00;99.90;;;;;;4894251;29;20140;-58
2022/03/05 11:13:03;;;;;;;23.48;14.82;;;5.20;99.90;;;;;;4890571;29;20048;-58
2022/03/05 11:15:30;;;;;;;24.48;15.45;;;5.20;99.90;;;;;;4891814;29;20393;-58
2022/03/05 11:17:59;;;;;;;27.15;17.33;;;5.30;99.90;;;;;;4899384;29;20047;-57
2022/03/05 11:20:25;;;;;;;23.50;16.20;;;5.40;99.90;;;;;;4898542;29;20056;-57
2022/03/05 11:22:52;;;;;;;22.08;14.82;;;5.40;99.90;;;;;;4899024;29;20093;-57
2022/03/05 11:25:24;;;;;;;25.80;16.55;;;5.40;99.90;;;;;;4893489;29;20067;-57
2022/03/05 11:27:57;;;;;;;30.35;16.98;;;5.40;99.90;;;;;;4898957;29;20047;-56
2022/03/05 11:30:23;;;;;;;26.77;17.02;;;5.40;99.90;;;;;;4900984;29;20824;-57
2022/03/05 11:32:49;;;;;;;26.65;15.80;;;5.40;99.90;;;;;;4896010;29;20549;-58
2022/03/05 11:35:22;;;;;;;24.25;16.20;;;5.40;99.90;;;;;;4883502;29;20139;-54
2022/03/05 11:37:50;;;;;;;28.13;17.27;;;5.50;99.90;;;;;;4878689;29;20086;-54
2022/03/05 11:40:42;;;;;;;25.27;16.95;;;5.50;99.90;;;;;;4897661;29;20059;-61
2022/03/05 11:43:17;;;;;;;26.98;17.92;;;5.60;99.90;;;;;;4899807;29;20052;-58
2022/03/05 11:46:03;;;;;;;26.52;16.52;;;5.70;99.90;;;;;;4900260;29;20052;-58
2022/03/05 11:48:36;;;;;;;25.23;16.85;;;5.70;99.90;;;;;;4895686;29;20262;-58
2022/03/05 11:51:08;;;;;;;;;;;5.80;99.90;;;;;;4900500;29;20051;-59
2022/03/05 11:53:34;;;;;;;25.67;16.13;;;5.80;99.90;;;;;;4895379;29;19927;-59
2022/03/05 11:56:19;;;;;;;24.13;16.23;;;5.80;99.90;;;;;;4895578;29;20048;-59
2022/03/05 11:58:45;;;;;;;27.55;15.95;;;5.80;99.90;;;;;;4898406;29;20577;-59
2022/03/05 12:01:32;;;;;;;25.38;16.50;;;5.80;99.90;;;;;;4899912;29;20139;-58
2022/03/05 12:04:03;;;;;;;25.40;15.45;;;5.80;99.90;;;;;;4896405;29;20108;-59
2022/03/05 12:06:42;;;;;;;24.17;15.77;;;5.90;99.90;;;;;;4897896;29;20489;-59
2022/03/05 12:09:32;;;;;;;24.98;16.40;;;5.90;99.90;;;;;;4879536;29;20071;-58
2022/03/05 12:11:59;;;;;;;26.20;17.95;;;5.90;99.90;;;;;;4894303;29;20051;-59
2022/03/05 12:15:06;;;;;;;28.20;15.73;;;6.00;99.90;;;;;;4894703;29;20056;-59
2022/03/05 12:17:35;;;;;;;24.50;15.90;;;6.00;99.90;;;;;;4881725;29;20048;-54
2022/03/05 12:20:05;;;;;;;25.73;15.35;;;5.90;99.90;;;;;;4897484;29;20542;-59
2022/03/05 12:22:31;;;;;;;25.33;16.98;;;5.80;99.90;;;;;;4882373;29;20388;-58
2022/03/05 12:24:57;;;;;;;25.83;17.23;;;5.80;99.90;;;;;;4897733;29;20048;-59
2022/03/05 12:27:27;;;;;;;27.08;17.98;;;5.80;99.90;;;;;;4897382;29;20423;-57
2022/03/05 12:29:53;;;;;;;26.83;16.98;;;5.80;99.90;;;;;;4879615;29;20111;-58
2022/03/05 12:32:27;;;;;;;25.48;16.40;;;5.80;99.90;;;;;;4879744;29;20060;-58
2022/03/05 12:34:53;;;;;;;25.00;16.85;;;5.80;99.90;;;;;;4895857;29;20111;-58
2022/03/05 12:37:18;;;;;;;26.75;17.33;;;5.90;99.90;;;;;;4898165;29;20387;-58
2022/03/05 12:39:45;;;;;;;23.10;15.95;;;5.90;99.90;;;;;;4895992;29;20399;-58
2022/03/05 12:42:11;;;;;;;26.20;17.45;;;6.00;99.90;;;;;;4896533;29;20079;-58